Bettles Airport
PABT : rendu visible

Aérodrome :











RETROUVEZ-NOUS SUR...

 
LOGIN :

S'inscrire | Disclaimer

   EN    FR    IT 

 









Légende :    VFR   VFR Marginal   IFR   IFR Intensif   IFR Très Intensif
Visi : 
Plafond : 
>= 8 km
>= 3000ft
5 à 8 km
1000 à 3000 ft
1500m à 5 km
500 à 1000 ft
800 à 1500m
200 à 500 ft
< 800m
< 200 ft
Symboles :   Orages  Brouillard  Fortes neiges  Fortes précipitations  Vent > 20 kt






- Altitude de l'aérodrome : 647 ft
- Code IATA : BTT


PABT - Bettles

DERNIER METAR :
  • 300653Z 04004KT 10SM CLR M25/M29 A3043 RMK AO2 SLP333 T12501289

METARs EXPIRÉS :
  • 300553Z 00000KT 10SM CLR M22/M26 A3042 RMK AO2 SLP331 4/036 T12171261 11100 21217 53003

TAF PABT
Valide du 30 à 06h jusqu'au 31 à 06h UTC


300520Z 3006/3106 00000KT P6SM SKC



MET'MAP, la Météo Aéronautique d'un coup d'oeil ! - Copyright ORBIFLY Décembre 2007 - Disclaimer

ORBIFLY MET'MAP TEAM :

Programmation & Développement : Alexandra Zaïnal
Sur une idée originale de : Baudouin d'Aumeries
Assistance à la programmation : Marc-Olivier Méhu
Soutien technique & logistique : Manuel Goepfert

Contact : metmap@orbifly.com




SOURCES & CREDITS :

   NOAA       Earth
Advisory